createdAt,value
2022-09-09T00:02:19.689Z,24.13
2022-09-09T00:05:02.312Z,24.24
2022-09-09T00:07:44.410Z,24.17
2022-09-09T00:10:40.419Z,24.04
2022-09-09T00:13:25.475Z,24.19
2022-09-09T00:16:04.434Z,24.48
2022-09-09T00:19:10.551Z,24.46
2022-09-09T00:21:51.832Z,24.76
2022-09-09T00:24:31.580Z,25.05
2022-09-09T00:27:33.286Z,24.85
2022-09-09T00:30:18.618Z,24.94
2022-09-09T00:32:45.502Z,24.90
2022-09-09T00:35:32.789Z,24.55
2022-09-09T00:38:06.692Z,24.49
2022-09-09T00:40:44.628Z,24.33
2022-09-09T00:43:26.523Z,24.22
2022-09-09T00:46:24.111Z,24.16
2022-09-09T00:49:02.719Z,24.34
2022-09-09T00:51:51.341Z,24.41
2022-09-09T00:54:29.363Z,24.30
2022-09-09T00:57:14.819Z,24.13
2022-09-09T00:59:47.041Z,23.92
2022-09-09T01:02:39.267Z,24.05
2022-09-09T01:05:21.043Z,24.06
2022-09-09T01:07:53.954Z,23.93
2022-09-09T01:10:50.273Z,23.75
2022-09-09T01:13:25.399Z,23.85
2022-09-09T01:15:57.234Z,23.71
2022-09-09T01:18:30.327Z,23.76
2022-09-09T01:21:10.637Z,23.83
2022-09-09T01:24:06.937Z,23.63
2022-09-09T01:26:36.590Z,23.38
2022-09-09T01:29:03.322Z,23.27
2022-09-09T01:31:35.647Z,22.95
2022-09-09T01:34:02.136Z,23.18
2022-09-09T01:36:28.551Z,23.27
2022-09-09T01:38:55.107Z,23.38
2022-09-09T01:41:21.835Z,23.27
2022-09-09T01:43:49.338Z,23.38
2022-09-09T01:46:16.251Z,23.10
2022-09-09T01:48:44.128Z,22.92
2022-09-09T01:51:11.593Z,23.26
2022-09-09T01:53:40.387Z,22.79
2022-09-09T01:56:34.569Z,22.34
2022-09-09T01:59:49.647Z,22.46
2022-09-09T02:02:23.069Z,22.05
2022-09-09T02:04:53.183Z,22.07
2022-09-09T02:07:28.820Z,22.17
2022-09-09T02:10:03.179Z,21.98
2022-09-09T02:12:31.450Z,22.30
2022-09-09T02:15:11.957Z,22.31
2022-09-09T02:17:42.204Z,22.25
2022-09-09T02:20:13.772Z,21.79
2022-09-09T02:22:45.130Z,21.64
2022-09-09T02:25:17.098Z,21.85
2022-09-09T02:27:46.444Z,21.76
2022-09-09T02:30:13.659Z,21.76
2022-09-09T02:32:43.357Z,21.82
2022-09-09T02:35:15.381Z,21.80
2022-09-09T02:37:47.024Z,21.99
2022-09-09T02:40:16.275Z,21.96
2022-09-09T02:42:44.683Z,22.02
2022-09-09T02:45:16.215Z,22.00
2022-09-09T02:47:53.687Z,21.93
2022-09-09T02:50:26.423Z,21.94
2022-09-09T02:53:00.030Z,22.13
2022-09-09T02:56:02.519Z,22.27
2022-09-09T02:58:29.229Z,22.25
2022-09-09T03:00:58.406Z,22.19
2022-09-09T03:03:25.324Z,21.98
2022-09-09T03:05:51.740Z,21.91
2022-09-09T03:08:18.310Z,21.80
2022-09-09T03:10:44.832Z,21.76
2022-09-09T03:13:14.016Z,21.80
2022-09-09T03:15:40.490Z,21.91
2022-09-09T03:18:06.974Z,22.16
2022-09-09T03:20:33.820Z,22.34
2022-09-09T03:23:01.658Z,22.35
2022-09-09T03:25:29.427Z,21.89
2022-09-09T03:27:56.679Z,21.47
2022-09-09T03:30:24.508Z,21.56
2022-09-09T03:32:51.453Z,21.62
2022-09-09T03:35:18.022Z,21.42
2022-09-09T03:37:45.022Z,21.68
2022-09-09T03:40:12.310Z,21.71
2022-09-09T03:42:39.604Z,21.54
2022-09-09T03:45:08.619Z,21.64
2022-09-09T03:47:35.111Z,21.52
2022-09-09T03:50:01.719Z,21.65
2022-09-09T03:52:28.178Z,21.68
2022-09-09T03:54:55.115Z,21.59
2022-09-09T03:57:21.667Z,21.70
2022-09-09T03:59:48.150Z,21.73
2022-09-09T04:02:14.646Z,21.53
2022-09-09T04:04:41.188Z,21.74
2022-09-09T04:07:07.959Z,21.89
2022-09-09T04:09:34.944Z,21.95
2022-09-09T04:12:01.587Z,21.78
2022-09-09T04:14:29.739Z,21.84
2022-09-09T04:16:58.279Z,21.75
2022-09-09T04:19:24.965Z,21.78
2022-09-09T04:21:52.615Z,21.78
2022-09-09T04:24:19.900Z,21.88
2022-09-09T04:26:46.578Z,21.93
2022-09-09T04:29:13.170Z,21.90
2022-09-09T04:31:43.014Z,21.92
2022-09-09T04:34:10.475Z,21.84
2022-09-09T04:36:37.254Z,21.77
2022-09-09T04:39:03.921Z,21.75
2022-09-09T04:41:32.436Z,21.77
2022-09-09T04:43:59.886Z,21.70
2022-09-09T04:46:26.521Z,21.72
2022-09-09T04:48:53.692Z,21.78
2022-09-09T04:51:20.412Z,21.79
2022-09-09T04:53:48.561Z,21.79
2022-09-09T04:56:17.640Z,21.81
2022-09-09T04:58:44.492Z,21.79
2022-09-09T05:01:16.973Z,21.92
2022-09-09T05:03:43.551Z,21.81
2022-09-09T05:06:18.791Z,21.87
2022-09-09T05:08:46.120Z,21.77
2022-09-09T05:11:15.283Z,21.79
2022-09-09T05:13:41.743Z,21.67
2022-09-09T05:16:08.255Z,21.67
2022-09-09T05:18:34.838Z,21.80
2022-09-09T05:21:01.487Z,21.93
2022-09-09T05:23:28.599Z,21.73
2022-09-09T05:25:59.127Z,21.66
2022-09-09T05:28:26.964Z,21.70
2022-09-09T05:31:01.646Z,21.73
2022-09-09T05:33:28.745Z,21.99
2022-09-09T05:36:06.615Z,22.04
2022-09-09T05:38:36.914Z,22.05
2022-09-09T05:41:04.351Z,22.03
2022-09-09T05:43:30.912Z,22.05
2022-09-09T05:46:11.399Z,22.22
2022-09-09T05:48:42.734Z,22.19
2022-09-09T05:51:16.650Z,22.02
2022-09-09T05:53:43.889Z,22.10
2022-09-09T05:56:13.417Z,22.19
2022-09-09T05:58:40.057Z,22.33
2022-09-09T06:01:07.613Z,22.40
2022-09-09T06:03:36.502Z,22.47
2022-09-09T06:06:06.556Z,22.67
2022-09-09T06:08:38.265Z,22.76
2022-09-09T06:11:10.503Z,22.73
2022-09-09T06:13:38.488Z,22.91
2022-09-09T06:16:05.612Z,22.82
2022-09-09T06:18:32.186Z,22.86
2022-09-09T06:21:01.535Z,22.88
2022-09-09T06:23:29.409Z,23.01
2022-09-09T06:26:08.100Z,23.03
2022-09-09T06:28:35.721Z,23.12
2022-09-09T06:31:05.371Z,23.13
2022-09-09T06:33:35.777Z,23.05
2022-09-09T06:36:04.722Z,23.03
2022-09-09T06:38:31.239Z,22.90
2022-09-09T06:41:01.122Z,23.09
2022-09-09T06:43:27.619Z,23.24
2022-09-09T06:45:58.575Z,23.15
2022-09-09T06:48:27.029Z,23.19
2022-09-09T06:51:12.107Z,23.33
2022-09-09T06:53:39.747Z,23.57
2022-09-09T06:56:16.093Z,23.76
2022-09-09T06:58:45.940Z,23.78
2022-09-09T07:01:15.364Z,23.92
2022-09-09T07:03:43.523Z,24.05
2022-09-09T07:06:20.684Z,24.24
2022-09-09T07:08:58.807Z,24.13
2022-09-09T07:11:28.384Z,24.40
2022-09-09T07:13:55.629Z,24.71
2022-09-09T07:16:26.010Z,25.28
2022-09-09T07:18:53.679Z,25.59
2022-09-09T07:21:21.771Z,25.49
2022-09-09T07:23:48.299Z,26.01
2022-09-09T07:26:17.837Z,26.26
2022-09-09T07:28:44.413Z,26.14
2022-09-09T07:31:17.681Z,26.39
2022-09-09T07:33:45.547Z,26.25
2022-09-09T07:36:18.504Z,26.26
2022-09-09T07:38:49.977Z,26.35
2022-09-09T07:41:18.375Z,27.04
2022-09-09T07:43:46.982Z,27.02
2022-09-09T07:46:15.922Z,27.49
2022-09-09T07:48:52.232Z,27.68
2022-09-09T07:51:24.999Z,27.73
2022-09-09T07:53:58.699Z,27.96
2022-09-09T07:56:27.161Z,28.33
2022-09-09T07:58:56.188Z,28.62
2022-09-09T08:01:28.717Z,28.62
2022-09-09T08:04:02.105Z,28.83
2022-09-09T08:06:34.448Z,29.13
2022-09-09T08:09:01.236Z,29.45
2022-09-09T08:11:29.755Z,29.24
2022-09-09T08:14:02.067Z,29.28
2022-09-09T08:16:31.821Z,29.45
2022-09-09T08:18:58.766Z,29.54
2022-09-09T08:21:30.560Z,29.69
2022-09-09T08:23:58.802Z,29.79
2022-09-09T08:26:31.287Z,29.70
2022-09-09T08:29:00.181Z,29.94
2022-09-09T08:31:31.688Z,29.78
2022-09-09T08:34:00.433Z,29.55
2022-09-09T08:36:29.732Z,29.81
2022-09-09T08:38:58.335Z,29.57
2022-09-09T08:41:59.415Z,29.17
2022-09-09T08:44:35.130Z,28.90
2022-09-09T08:47:13.788Z,29.18
2022-09-09T08:49:56.413Z,29.00
2022-09-09T08:52:37.208Z,28.99
2022-09-09T08:55:26.084Z,28.66
2022-09-09T08:57:55.253Z,28.92
2022-09-09T09:00:21.878Z,28.99
2022-09-09T09:02:55.823Z,29.30
2022-09-09T09:05:33.974Z,29.11
2022-09-09T09:08:07.911Z,28.97
2022-09-09T09:10:51.628Z,29.24
2022-09-09T09:13:31.090Z,28.90
2022-09-09T09:16:07.569Z,28.75
2022-09-09T09:18:34.943Z,28.69
2022-09-09T09:21:25.296Z,28.79
2022-09-09T09:23:59.022Z,28.39
2022-09-09T09:26:33.146Z,28.34
2022-09-09T09:29:01.846Z,28.50
2022-09-09T09:31:28.386Z,28.54
2022-09-09T09:33:57.361Z,28.92
2022-09-09T09:36:34.756Z,28.50
2022-09-09T09:41:51.958Z,28.71
2022-09-09T09:44:29.031Z,28.72
2022-09-09T09:47:08.518Z,28.39
2022-09-09T09:49:35.353Z,28.16
2022-09-09T09:52:07.135Z,28.52
2022-09-09T09:54:43.436Z,28.91
2022-09-09T09:57:12.715Z,28.53
2022-09-09T09:59:43.721Z,28.79
2022-09-09T10:02:28.077Z,28.93
2022-09-09T10:05:06.937Z,28.85
2022-09-09T10:07:34.290Z,28.58
2022-09-09T10:10:01.641Z,28.54
2022-09-09T10:12:48.380Z,28.43
2022-09-09T10:15:54.965Z,29.08
2022-09-09T10:18:58.429Z,29.49
2022-09-09T10:21:56.506Z,29.31
2022-09-09T10:24:26.276Z,29.70
2022-09-09T10:27:12.885Z,29.74
2022-09-09T10:30:09.997Z,29.57
2022-09-09T10:32:42.239Z,29.28
2022-09-09T10:35:25.767Z,29.53
2022-09-09T10:38:15.392Z,29.43
2022-09-09T10:40:54.191Z,29.35
2022-09-09T10:43:41.797Z,29.52
2022-09-09T10:46:24.072Z,29.06
2022-09-09T10:49:24.838Z,28.78
2022-09-09T10:51:54.296Z,28.92
2022-09-09T10:54:29.799Z,29.19
2022-09-09T10:57:03.837Z,29.43
2022-09-09T10:59:37.099Z,29.22
2022-09-09T11:02:13.922Z,28.91
2022-09-09T11:04:46.091Z,28.61
2022-09-09T11:07:22.423Z,28.75
2022-09-09T11:09:56.657Z,28.97
2022-09-09T11:12:24.920Z,29.04
2022-09-09T11:15:08.285Z,29.07
2022-09-09T11:17:42.091Z,29.12
2022-09-09T11:20:13.269Z,29.23
2022-09-09T11:22:55.406Z,28.90
2022-09-09T11:25:27.601Z,28.83
2022-09-09T11:28:12.455Z,29.26
2022-09-09T11:30:57.541Z,29.23
2022-09-09T11:33:42.393Z,29.18
2022-09-09T11:36:27.183Z,29.13
2022-09-09T11:39:16.603Z,29.42
2022-09-09T11:41:43.169Z,29.37
2022-09-09T11:44:18.190Z,29.49
2022-09-09T11:46:50.800Z,29.18
2022-09-09T11:49:32.387Z,29.23
2022-09-09T11:51:58.908Z,29.27
2022-09-09T11:54:33.812Z,29.39
2022-09-09T11:57:00.580Z,29.53
2022-09-09T11:59:30.966Z,29.68
2022-09-09T12:02:11.012Z,29.55
2022-09-09T12:04:45.778Z,29.52
2022-09-09T12:07:12.320Z,29.66
2022-09-09T12:09:47.424Z,29.35
2022-09-09T12:12:13.816Z,29.43
2022-09-09T12:14:44.218Z,29.35
2022-09-09T12:17:20.225Z,29.35
2022-09-09T12:19:47.096Z,29.32
2022-09-09T12:22:44.170Z,29.31
2022-09-09T12:25:29.896Z,29.32
2022-09-09T12:28:18.453Z,29.37
2022-09-09T12:31:02.383Z,29.52
2022-09-09T12:33:37.197Z,29.55
2022-09-09T12:36:05.691Z,29.25
2022-09-09T12:38:37.203Z,29.32
2022-09-09T12:41:04.263Z,29.32
2022-09-09T12:43:30.904Z,29.35
2022-09-09T12:46:08.318Z,29.38
2022-09-09T12:48:38.635Z,29.17
2022-09-09T12:51:15.277Z,29.14
2022-09-09T12:53:41.779Z,29.23
2022-09-09T12:56:19.313Z,29.16
2022-09-09T12:58:49.271Z,29.06
2022-09-09T13:01:34.362Z,28.98
2022-09-09T13:04:01.512Z,29.17
2022-09-09T13:06:33.430Z,29.07
2022-09-09T13:09:02.075Z,28.95
2022-09-09T13:11:37.224Z,28.95
2022-09-09T13:14:04.263Z,29.07
2022-09-09T13:16:34.984Z,29.07
2022-09-09T13:19:17.003Z,29.07
2022-09-09T13:21:44.000Z,28.97
2022-09-09T13:24:32.741Z,29.31
2022-09-09T13:27:05.435Z,29.21
2022-09-09T13:29:33.324Z,29.00
2022-09-09T13:32:13.768Z,29.04
2022-09-09T13:34:40.773Z,28.97
2022-09-09T13:37:17.675Z,29.17
2022-09-09T13:39:54.275Z,29.40
2022-09-09T13:42:26.501Z,29.48
2022-09-09T13:44:53.351Z,29.31
2022-09-09T13:47:24.187Z,29.28
2022-09-09T13:49:50.755Z,29.36
2022-09-09T13:52:19.822Z,29.30
2022-09-09T13:54:53.455Z,29.26
2022-09-09T13:57:22.680Z,29.21
2022-09-09T14:00:06.133Z,29.27
2022-09-09T14:02:33.648Z,29.13
2022-09-09T14:05:00.145Z,29.05
2022-09-09T14:07:26.619Z,28.86
2022-09-09T14:09:53.526Z,28.52
2022-09-09T14:12:21.139Z,28.64
2022-09-09T14:14:47.656Z,28.70
2022-09-09T14:17:15.351Z,28.63
2022-09-09T14:19:41.836Z,28.64
2022-09-09T14:22:08.271Z,28.63
2022-09-09T14:24:35.093Z,28.60
2022-09-09T14:27:01.627Z,28.62
2022-09-09T14:29:28.115Z,28.62
2022-09-09T14:31:54.632Z,28.73
2022-09-09T14:34:21.321Z,28.74
2022-09-09T14:36:48.395Z,28.66
2022-09-09T14:39:14.839Z,28.67
2022-09-09T14:41:41.429Z,28.76
2022-09-09T14:44:09.115Z,28.73
2022-09-09T14:46:35.620Z,28.51
2022-09-09T14:49:02.092Z,28.39
2022-09-09T14:51:29.170Z,28.36
2022-09-09T14:53:58.810Z,28.21
2022-09-09T14:56:28.129Z,28.21
2022-09-09T14:58:56.327Z,28.25
2022-09-09T15:01:23.821Z,28.16
2022-09-09T15:03:56.094Z,28.14
2022-09-09T15:06:24.951Z,28.17
2022-09-09T15:08:53.217Z,28.14
2022-09-09T15:11:21.523Z,28.09
2022-09-09T15:13:50.625Z,27.99
2022-09-09T15:16:19.359Z,28.38
2022-09-09T15:18:47.152Z,28.28
2022-09-09T15:21:16.478Z,28.06
2022-09-09T15:23:43.581Z,27.98
2022-09-09T15:26:10.578Z,27.56
2022-09-09T15:28:38.973Z,27.54
2022-09-09T15:31:27.109Z,26.95
2022-09-09T15:34:02.079Z,26.50
2022-09-09T15:36:31.129Z,27.00
2022-09-09T15:38:57.772Z,26.76
2022-09-09T15:41:24.531Z,26.93
2022-09-09T15:43:53.105Z,26.64
2022-09-09T15:46:28.873Z,26.48
2022-09-09T15:49:03.540Z,26.25
2022-09-09T15:51:42.083Z,26.87
2022-09-09T15:54:11.803Z,26.71
2022-09-09T15:56:38.375Z,26.78
2022-09-09T15:59:05.120Z,26.36
2022-09-09T16:01:33.030Z,26.04
2022-09-09T16:04:00.973Z,26.08
2022-09-09T16:06:29.564Z,26.17
2022-09-09T16:08:59.067Z,25.83
2022-09-09T16:11:32.030Z,26.14
2022-09-09T16:13:59.621Z,26.35
2022-09-09T16:16:29.175Z,26.79
2022-09-09T16:19:01.105Z,26.22
2022-09-09T16:21:33.990Z,26.34
2022-09-09T16:24:02.057Z,26.08
2022-09-09T16:26:31.689Z,26.06
2022-09-09T16:28:59.847Z,25.72
2022-09-09T16:31:28.183Z,25.91
2022-09-09T16:33:54.906Z,25.94
2022-09-09T16:36:26.726Z,26.60
2022-09-09T16:38:55.836Z,26.44
2022-09-09T16:41:23.155Z,25.97
2022-09-09T16:43:57.635Z,26.53
2022-09-09T16:46:25.505Z,26.74
2022-09-09T16:48:53.046Z,25.97
2022-09-09T16:51:38.821Z,26.23
2022-09-09T16:54:08.108Z,26.48
2022-09-09T16:56:39.924Z,25.80
2022-09-09T16:59:09.882Z,25.30
2022-09-09T17:01:38.889Z,25.21
2022-09-09T17:04:08.320Z,24.93
2022-09-09T17:06:36.038Z,24.88
2022-09-09T17:09:05.636Z,24.86
2022-09-09T17:11:32.119Z,24.78
2022-09-09T17:13:59.186Z,24.69
2022-09-09T17:16:31.007Z,24.69
2022-09-09T17:18:59.559Z,24.72
2022-09-09T17:21:27.824Z,24.65
2022-09-09T17:23:55.079Z,24.74
2022-09-09T17:26:25.701Z,24.62
2022-09-09T17:28:58.641Z,24.62
2022-09-09T17:31:26.846Z,24.49
2022-09-09T17:33:54.248Z,24.56
2022-09-09T17:36:24.407Z,24.49
2022-09-09T17:38:51.655Z,24.47
2022-09-09T17:41:21.220Z,24.35
2022-09-09T17:43:48.595Z,24.31
2022-09-09T17:46:16.448Z,24.42
2022-09-09T17:48:45.543Z,24.43
2022-09-09T17:51:24.527Z,24.39
2022-09-09T17:53:52.679Z,24.41
2022-09-09T17:56:21.463Z,24.41
2022-09-09T17:58:49.303Z,24.43
2022-09-09T18:01:21.855Z,24.43
2022-09-09T18:03:49.802Z,24.51
2022-09-09T18:06:19.464Z,24.62
2022-09-09T18:08:54.951Z,24.44
2022-09-09T18:11:24.571Z,24.29
2022-09-09T18:13:52.555Z,24.26
2022-09-09T18:16:20.195Z,24.45
2022-09-09T18:18:47.078Z,24.18
2022-09-09T18:21:13.868Z,24.07
2022-09-09T18:23:42.908Z,24.07
2022-09-09T18:26:15.593Z,24.10
2022-09-09T18:28:43.781Z,24.03
2022-09-09T18:31:12.854Z,23.95
2022-09-09T18:33:41.576Z,23.88
2022-09-09T18:36:11.531Z,23.88
2022-09-09T18:38:38.681Z,23.89
2022-09-09T18:41:18.902Z,23.85
2022-09-09T18:43:45.539Z,23.81
2022-09-09T18:46:12.827Z,23.89
2022-09-09T18:48:40.040Z,23.95
2022-09-09T18:51:08.653Z,24.13
2022-09-09T18:53:35.959Z,24.02
2022-09-09T18:56:05.575Z,24.00
2022-09-09T18:58:33.614Z,24.10
2022-09-09T19:01:01.856Z,24.18
2022-09-09T19:03:30.074Z,23.92
2022-09-09T19:06:24.222Z,23.62
2022-09-09T19:08:55.136Z,23.72
2022-09-09T19:11:24.386Z,23.61
2022-09-09T19:13:56.808Z,23.56
2022-09-09T19:16:25.828Z,23.48
2022-09-09T19:18:52.659Z,23.59
2022-09-09T19:21:22.710Z,23.62
2022-09-09T19:24:05.959Z,23.63
2022-09-09T19:26:37.083Z,23.54
2022-09-09T19:29:03.620Z,23.49
2022-09-09T19:31:30.340Z,23.59
2022-09-09T19:33:57.273Z,23.62
2022-09-09T19:36:26.972Z,23.49
2022-09-09T19:38:54.753Z,23.37
2022-09-09T19:41:24.734Z,23.35
2022-09-09T19:43:52.619Z,23.53
2022-09-09T19:46:19.227Z,23.45
2022-09-09T19:48:46.994Z,23.48
2022-09-09T19:51:16.215Z,23.56
2022-09-09T19:53:51.774Z,23.58
2022-09-09T19:56:20.250Z,23.56
2022-09-09T19:58:48.377Z,23.48
2022-09-09T20:01:17.550Z,23.57
2022-09-09T20:03:45.719Z,23.69
2022-09-09T20:06:14.069Z,23.97
2022-09-09T20:08:41.307Z,23.69
2022-09-09T20:11:09.166Z,23.73
2022-09-09T20:13:38.913Z,23.53
2022-09-09T20:16:10.356Z,23.60
2022-09-09T20:18:40.013Z,23.40
2022-09-09T20:21:12.480Z,23.32
2022-09-09T20:23:39.636Z,23.49
2022-09-09T20:26:08.968Z,23.42
2022-09-09T20:28:38.062Z,23.35
2022-09-09T20:31:11.084Z,23.33
2022-09-09T20:33:38.335Z,23.29
2022-09-09T20:36:18.309Z,23.16
2022-09-09T20:38:51.414Z,23.21
2022-09-09T20:41:21.443Z,23.15
2022-09-09T20:43:52.578Z,23.11
2022-09-09T20:46:21.087Z,23.12
2022-09-09T20:48:50.755Z,23.23
2022-09-09T20:51:19.694Z,23.43
2022-09-09T20:53:47.436Z,23.59
2022-09-09T20:56:17.069Z,23.63
2022-09-09T20:58:43.932Z,23.78
2022-09-09T21:01:15.423Z,23.82
2022-09-09T21:03:42.122Z,23.87
2022-09-09T21:06:09.356Z,23.85
2022-09-09T21:08:36.768Z,23.81
2022-09-09T21:11:04.722Z,23.89
2022-09-09T21:13:33.327Z,23.82
2022-09-09T21:16:00.522Z,23.63
2022-09-09T21:18:29.680Z,23.64
2022-09-09T21:20:56.968Z,23.53
2022-09-09T21:23:23.945Z,23.58
2022-09-09T21:25:51.503Z,23.52
2022-09-09T21:28:18.600Z,23.52
2022-09-09T21:30:49.315Z,23.48
2022-09-09T21:33:17.786Z,23.63
2022-09-09T21:35:44.890Z,23.74
2022-09-09T21:38:19.751Z,23.77
2022-09-09T21:40:46.567Z,23.85
2022-09-09T21:43:14.042Z,23.91
2022-09-09T21:45:41.608Z,24.00
2022-09-09T21:48:10.151Z,24.03
2022-09-09T21:50:37.971Z,23.88
2022-09-09T21:53:04.671Z,23.91
2022-09-09T21:55:36.681Z,24.05
2022-09-09T21:58:04.966Z,24.37
2022-09-09T22:00:31.769Z,24.12
2022-09-09T22:03:02.712Z,23.75
2022-09-09T22:05:31.435Z,23.57
2022-09-09T22:07:58.520Z,23.42
2022-09-09T22:10:28.689Z,23.20
2022-09-09T22:12:55.174Z,23.42
2022-09-09T22:15:22.043Z,23.13
2022-09-09T22:17:49.227Z,23.18
2022-09-09T22:20:16.054Z,23.12
2022-09-09T22:22:42.867Z,23.34
2022-09-09T22:25:09.862Z,23.47
2022-09-09T22:27:36.335Z,23.42
2022-09-09T22:30:03.548Z,23.03
2022-09-09T22:32:30.008Z,22.94
2022-09-09T22:34:56.533Z,23.16
2022-09-09T22:37:23.100Z,22.72
2022-09-09T22:39:49.631Z,22.48
2022-09-09T22:42:16.103Z,22.78
2022-09-09T22:44:42.581Z,22.48
2022-09-09T22:47:09.116Z,22.66
2022-09-09T22:49:37.418Z,23.54
2022-09-09T22:52:03.989Z,22.95
2022-09-09T22:54:30.408Z,22.82
2022-09-09T22:56:56.867Z,23.05
2022-09-09T22:59:23.526Z,22.76
2022-09-09T23:01:51.385Z,22.43
2022-09-09T23:06:46.818Z,22.39
2022-09-09T23:09:13.233Z,22.24
2022-09-09T23:11:40.057Z,21.80
2022-09-09T23:14:09.858Z,21.87
2022-09-09T23:16:39.946Z,22.15
2022-09-09T23:19:11.920Z,22.03
2022-09-09T23:21:40.501Z,21.69
2022-09-09T23:24:08.314Z,21.92
2022-09-09T23:26:34.864Z,22.05
2022-09-09T23:29:02.481Z,22.04
2022-09-09T23:31:33.092Z,21.82
2022-09-09T23:34:00.970Z,22.11
2022-09-09T23:36:31.671Z,22.14
2022-09-09T23:39:00.398Z,22.12
2022-09-09T23:41:26.969Z,21.91
2022-09-09T23:43:53.989Z,21.57
2022-09-09T23:46:29.138Z,21.73
2022-09-09T23:48:57.794Z,21.72
2022-09-09T23:51:28.096Z,21.94
2022-09-09T23:53:56.910Z,21.70
2022-09-09T23:56:29.667Z,21.53
2022-09-09T23:58:56.363Z,21.69
